Terminal Aerodrome Forecast
Issued by NWS

Home | Current Version | Previous Version | Text Only | Print | Product List | Glossary On
Versions: 1 2 3 4 5 6 7 8 9 10 11 12 13 14 15 16 17
747
FTUS42 KFFC 011740
TAFPDK
TAF
KPDK 011740Z 0118/0218 22015G25KT P6SM BKN035 BKN070
     FM012300 26015G25KT 4SM SHRA BKN025 OVC080
      TEMPO 0123/0202 VRB35KT 2SM +TSRA BKN014CB
     FM020200 31015G25KT P6SM VCSH OVC030
     FM020600 33015G25KT P6SM OVC050
     FM021000 33012G18KT P6SM SCT120
     FM021600 35015G25KT P6SM SCT250=

USA.gov is the U.S. government's official web portal to all federal, state and local government web resources and services.